Terminal Aerodrome Forecast
Issued by NWS

Home | Current Version | Previous Version | Text Only | Print | Product List | Glossary On
Versions: 1 2 3 4 5 6 7 8 9 10 11 12 13 14 15 16 17 18 19
132
FTUS45 KRIW 272327
TAFCOD
TAF
KCOD 272327Z 2800/2824 02016G26KT P6SM VCSH SCT020 BKN035
      TEMPO 2800/2802 2SM -RASN OVC012
     FM280200 35011KT 2SM -SN OVC010
     FM281800 36013G20KT P6SM VCSH SCT008 BKN018
      AMD LTD TO CLD VIS AND WIND=

USA.gov is the U.S. government's official web portal to all federal, state and local government web resources and services.